ZKJMC NZAR-NZAR

Flight info

Callsign ZKJMC
Flight time 0h 3m
Altitude 1100
Route CIRCUIT
Aircraft C172/L-V/N

Departure

Time 2026-04-18 08:11
Airport Ardmore Airport (NZAR)

Arrival

Time 2026-04-18 08:14
Airport Ardmore Airport (NZAR)
Time Latitude Longitude Altitude Speed Heading
2026-04-18 07:52 -37.03390 174.97272 110 ft 0 kts 323°
2026-04-18 08:03 -37.03390 174.97270 110 ft 0 kts 326°
2026-04-18 08:03 -37.03389 174.97270 110 ft 0 kts 328°
2026-04-18 08:04 -37.03376 174.97270 110 ft 4 kts 19°
2026-04-18 08:04 -37.03349 174.97296 110 ft 5 kts 45°
2026-04-18 08:04 -37.03317 174.97327 110 ft 5 kts 33°
2026-04-18 08:04 -37.03299 174.97322 110 ft 1 kts 10°
2026-04-18 08:05 -37.03297 174.97322 110 ft 0 kts 50°
2026-04-18 08:06 -37.03291 174.97330 110 ft 4 kts 31°
2026-04-18 08:06 -37.03275 174.97308 110 ft 5 kts 235°
2026-04-18 08:06 -37.03313 174.97260 110 ft 9 kts 226°
2026-04-18 08:06 -37.03362 174.97198 110 ft 10 kts 226°
2026-04-18 08:07 -37.03407 174.97142 110 ft 8 kts 228°
2026-04-18 08:07 -37.03445 174.97093 110 ft 7 kts 227°
2026-04-18 08:07 -37.03478 174.97051 110 ft 6 kts 229°
2026-04-18 08:07 -37.03499 174.97025 110 ft 2 kts 224°
2026-04-18 08:08 -37.03515 174.97003 110 ft 5 kts 225°
2026-04-18 08:08 -37.03535 174.96973 110 ft 4 kts 232°
2026-04-18 08:08 -37.03538 174.96956 110 ft 0 kts 290°
2026-04-18 08:09 -37.03537 174.96953 110 ft 4 kts 288°
2026-04-18 08:10 -37.03514 174.96909 110 ft 5 kts
2026-04-18 08:10 -37.03504 174.96916 110 ft 0 kts 46°
2026-04-18 08:10 -37.03442 174.96995 110 ft 37 kts 44°
2026-04-18 08:10 -37.03200 174.97336 210 ft 58 kts 43°
2026-04-18 08:11 -37.02934 174.97746 398 ft 62 kts 43°
2026-04-18 08:11 -37.02633 174.98129 613 ft 61 kts 31°
2026-04-18 08:11 -37.02350 174.98511 838 ft 63 kts 43°
2026-04-18 08:11 -37.02395 174.99124 1037 ft 90 kts 105°
2026-04-18 08:12 -37.02827 174.99762 1187 ft 103 kts 112°
2026-04-18 08:12 -37.03532 175.00146 1195 ft 129 kts 208°
2026-04-18 08:12 -37.04332 174.99651 1217 ft 133 kts 212°
2026-04-18 08:12 -37.05179 174.99141 1236 ft 136 kts 216°
2026-04-18 08:13 -37.05953 174.98505 1360 ft 130 kts 230°
2026-04-18 08:13 -37.06575 174.97705 1370 ft 121 kts 253°
2026-04-18 08:13 -37.06622 174.96840 1185 ft 84 kts 310°
2026-04-18 08:13 -37.06282 174.96376 1073 ft 69 kts 334°
2026-04-18 08:14 -37.05915 174.96063 1002 ft 60 kts 336°
2026-04-18 08:14 -37.05572 174.95773 891 ft 64 kts 338°
2026-04-18 08:14 -37.05199 174.95515 834 ft 61 kts 341°
2026-04-18 08:14 -37.04811 174.95476 735 ft 49 kts 15°
2026-04-18 08:15 -37.04531 174.95665 602 ft 47 kts 24°
2026-04-18 08:15 -37.04284 174.95952 462 ft 50 kts 36°
2026-04-18 08:15 -37.04039 174.96272 356 ft 51 kts 30°
2026-04-18 08:15 -37.03785 174.96578 304 ft 49 kts 33°
2026-04-18 08:16 -37.03533 174.96883 194 ft 52 kts 36°
2026-04-18 08:16 -37.03310 174.97162 110 ft 33 kts 47°
2026-04-18 08:16 -37.03095 174.97459 164 ft 57 kts 44°
2026-04-18 08:16 -37.02805 174.97835 321 ft 61 kts 38°
2026-04-18 08:17 -37.02515 174.98235 505 ft 65 kts 40°
2026-04-18 08:17 -37.02257 174.98737 669 ft 74 kts 54°
2026-04-18 08:17 -37.02374 174.99431 892 ft 97 kts 114°
2026-04-18 08:17 -37.02864 175.00037 1078 ft 110 kts 149°
2026-04-18 08:18 -37.03622 174.99802 1131 ft 123 kts 214°
2026-04-18 08:18 -37.04431 174.99291 1159 ft 133 kts 217°
2026-04-18 08:18 -37.05146 174.98605 1188 ft 125 kts 237°
2026-04-18 08:18 -37.05763 174.97818 1221 ft 127 kts 238°
2026-04-18 08:19 -37.06290 174.97018 1321 ft 97 kts 265°
2026-04-18 08:19 -37.06296 174.96391 1283 ft 61 kts 316°
2026-04-18 08:19 -37.06030 174.96065 1126 ft 53 kts 336°
2026-04-18 08:19 -37.05695 174.95816 971 ft 60 kts 341°
2026-04-18 08:20 -37.05311 174.95560 914 ft 62 kts 338°
2026-04-18 08:20 -37.05002 174.95340 838 ft 46 kts 356°
2026-04-18 08:20 -37.04720 174.95471 718 ft 44 kts 20°
2026-04-18 08:20 -37.04464 174.95714 574 ft 50 kts 31°
2026-04-18 08:21 -37.04216 174.96027 459 ft 52 kts 33°
2026-04-18 08:21 -37.03966 174.96349 388 ft 51 kts 34°
2026-04-18 08:21 -37.03714 174.96664 285 ft 51 kts 37°
2026-04-18 08:21 -37.03452 174.96983 146 ft 53 kts 39°
2026-04-18 08:22 -37.03241 174.97253 110 ft 42 kts 42°
2026-04-18 08:22 -37.02995 174.97597 225 ft 59 kts 39°
2026-04-18 08:22 -37.02712 174.97969 425 ft 59 kts 37°
2026-04-18 08:22 -37.02457 174.98364 637 ft 62 kts 39°
2026-04-18 08:23 -37.02310 174.98932 798 ft 87 kts 82°
2026-04-18 08:23 -37.02615 174.99704 998 ft 99 kts 111°
2026-04-18 08:23 -37.03283 175.00043 1076 ft 125 kts 201°
2026-04-18 08:23 -37.04039 174.99509 1145 ft 127 kts 226°
2026-04-18 08:24 -37.04740 174.98802 1170 ft 128 kts 237°
2026-04-18 08:24 -37.05343 174.97990 1181 ft 128 kts 243°
2026-04-18 08:24 -37.05880 174.97133 1203 ft 122 kts 251°
2026-04-18 08:24 -37.05945 174.96303 1070 ft 82 kts 317°
2026-04-18 08:25 -37.05566 174.95920 1016 ft 67 kts 338°
2026-04-18 08:25 -37.05165 174.95653 920 ft 57 kts 341°
2026-04-18 08:25 -37.04836 174.95473 744 ft 54 kts
2026-04-18 08:25 -37.04555 174.95647 641 ft 42 kts 26°
2026-04-18 08:26 -37.04313 174.95905 520 ft 47 kts 30°
2026-04-18 08:26 -37.04078 174.96208 410 ft 49 kts 31°
2026-04-18 08:26 -37.03821 174.96519 318 ft 52 kts 32°
2026-04-18 08:26 -37.03567 174.96841 201 ft 52 kts 36°
2026-04-18 08:27 -37.03331 174.97139 110 ft 35 kts 43°
2026-04-18 08:27 -37.03127 174.97407 157 ft 54 kts 46°
2026-04-18 08:27 -37.02884 174.97786 353 ft 55 kts 35°
2026-04-18 08:27 -37.02611 174.98193 538 ft 62 kts 38°
2026-04-18 08:28 -37.02362 174.98628 707 ft 67 kts 43°
2026-04-18 08:28 -37.02368 174.99272 917 ft 92 kts 97°
2026-04-18 08:28 -37.02773 174.99931 1075 ft 104 kts 122°
2026-04-18 08:28 -37.03560 174.99989 1054 ft 127 kts 217°
2026-04-18 08:29 -37.04323 174.99394 1101 ft 131 kts 223°
2026-04-18 08:29 -37.05024 174.98660 1119 ft 132 kts 234°
2026-04-18 08:29 -37.05673 174.97847 1153 ft 129 kts 238°
2026-04-18 08:29 -37.06247 174.97043 1161 ft 107 kts 255°
2026-04-18 08:30 -37.06137 174.96391 1003 ft 78 kts 332°
2026-04-18 08:30 -37.05729 174.95996 1023 ft 74 kts 335°
2026-04-18 08:30 -37.05270 174.95670 939 ft 72 kts 339°
2026-04-18 08:30 -37.04886 174.95462 783 ft 59 kts 356°
2026-04-18 08:31 -37.04530 174.95664 613 ft 56 kts 32°
2026-04-18 08:31 -37.04249 174.96021 470 ft 58 kts 34°
2026-04-18 08:31 -37.03964 174.96381 382 ft 54 kts 34°
2026-04-18 08:31 -37.03669 174.96721 256 ft 61 kts 37°
2026-04-18 08:32 -37.03381 174.97075 122 ft 53 kts 45°
2026-04-18 08:32 -37.03165 174.97353 113 ft 46 kts 39°
2026-04-18 08:32 -37.02915 174.97699 254 ft 58 kts 42°
2026-04-18 08:32 -37.02609 174.98080 420 ft 64 kts 38°
2026-04-18 08:33 -37.02324 174.98467 664 ft 61 kts 38°
2026-04-18 08:33 -37.02150 174.98993 774 ft 92 kts 97°
2026-04-18 08:33 -37.02617 174.99626 953 ft 103 kts 123°
2026-04-18 08:33 -37.03311 174.99930 1051 ft 119 kts 203°
2026-04-18 08:34 -37.03997 174.99329 1046 ft 123 kts 234°
2026-04-18 08:34 -37.04604 174.98570 1051 ft 124 kts 236°
2026-04-18 08:34 -37.05200 174.97812 1113 ft 121 kts 239°
2026-04-18 08:34 -37.05776 174.97038 1184 ft 117 kts 241°
2026-04-18 08:35 -37.06011 174.96336 1082 ft 68 kts 325°
2026-04-18 08:35 -37.05644 174.95999 990 ft 66 kts 340°
2026-04-18 08:35 -37.05316 174.95756 928 ft 49 kts 341°
2026-04-18 08:35 -37.04994 174.95567 753 ft 56 kts 347°
2026-04-18 08:36 -37.04647 174.95564 639 ft 50 kts 20°
2026-04-18 08:36 -37.04357 174.95842 555 ft 54 kts 35°
2026-04-18 08:36 -37.04088 174.96190 431 ft 58 kts 34°
2026-04-18 08:36 -37.03813 174.96535 331 ft 54 kts 34°
2026-04-18 08:37 -37.03533 174.96875 189 ft 57 kts 38°
2026-04-18 08:37 -37.03285 174.97205 112 ft 42 kts 41°
2026-04-18 08:37 -37.03079 174.97456 131 ft 54 kts 44°
2026-04-18 08:37 -37.02829 174.97833 304 ft 58 kts 43°
2026-04-18 08:38 -37.02575 174.98238 475 ft 61 kts 39°
2026-04-18 08:38 -37.02332 174.98663 691 ft 68 kts 61°
2026-04-18 08:38 -37.02460 174.99298 926 ft 82 kts 97°
2026-04-18 08:38 -37.02831 174.99922 1051 ft 105 kts 134°
2026-04-18 08:39 -37.03587 174.99843 1081 ft 116 kts 226°
2026-04-18 08:39 -37.04233 174.99213 1133 ft 118 kts 229°
2026-04-18 08:39 -37.04884 174.98561 1173 ft 121 kts 232°
2026-04-18 08:39 -37.05492 174.97836 1226 ft 120 kts 238°
2026-04-18 08:40 -37.05949 174.97052 1177 ft 95 kts 275°
2026-04-18 08:40 -37.05832 174.96376 1097 ft 73 kts 318°
2026-04-18 08:40 -37.05495 174.95956 1060 ft 66 kts 330°
2026-04-18 08:40 -37.05142 174.95599 954 ft 56 kts 336°
2026-04-18 08:41 -37.04803 174.95494 753 ft 58 kts 13°
2026-04-18 08:41 -37.04456 174.95729 629 ft 53 kts 32°
2026-04-18 08:41 -37.04198 174.96051 533 ft 54 kts 31°
2026-04-18 08:41 -37.03936 174.96403 404 ft 56 kts 37°
2026-04-18 08:42 -37.03637 174.96750 250 ft 61 kts 37°
2026-04-18 08:42 -37.03358 174.97107 120 ft 51 kts 42°
2026-04-18 08:42 -37.03157 174.97357 110 ft 41 kts 41°
2026-04-18 08:42 -37.02911 174.97694 225 ft 58 kts 44°
2026-04-18 08:43 -37.02662 174.98071 442 ft 57 kts 43°
2026-04-18 08:43 -37.02406 174.98468 595 ft 64 kts 47°
2026-04-18 08:43 -37.02410 174.99097 833 ft 78 kts 86°
2026-04-18 08:43 -37.02692 174.99727 1017 ft 98 kts 130°
2026-04-18 08:44 -37.03430 174.99837 1048 ft 120 kts 218°
2026-04-18 08:44 -37.04071 174.99173 1098 ft 120 kts 232°
2026-04-18 08:44 -37.04697 174.98476 1171 ft 121 kts 234°
2026-04-18 08:44 -37.05331 174.97754 1220 ft 124 kts 235°
2026-04-18 08:45 -37.05816 174.96989 1217 ft 94 kts 273°
2026-04-18 08:45 -37.05716 174.96287 1128 ft 69 kts 325°
2026-04-18 08:45 -37.05397 174.95931 1057 ft 56 kts 333°
2026-04-18 08:45 -37.05072 174.95657 933 ft 52 kts 339°
2026-04-18 08:46 -37.04760 174.95479 748 ft 51 kts 12°
2026-04-18 08:46 -37.04448 174.95706 608 ft 53 kts 32°
2026-04-18 08:46 -37.04192 174.96057 480 ft 54 kts 37°
2026-04-18 08:46 -37.03920 174.96393 362 ft 56 kts 33°
2026-04-18 08:47 -37.03637 174.96745 245 ft 59 kts 36°
2026-04-18 08:47 -37.03361 174.97099 125 ft 51 kts 43°
2026-04-18 08:47 -37.03142 174.97378 123 ft 51 kts 43°
2026-04-18 08:47 -37.02890 174.97745 290 ft 59 kts 40°
2026-04-18 08:48 -37.02629 174.98123 498 ft 57 kts 34°
2026-04-18 08:48 -37.02397 174.98529 712 ft 56 kts 41°
2026-04-18 08:48 -37.02349 174.99080 858 ft 85 kts 97°
2026-04-18 08:48 -37.02734 174.99681 1049 ft 99 kts 140°
2026-04-18 08:49 -37.03442 174.99632 1197 ft 108 kts 211°
2026-04-18 08:49 -37.04076 174.99129 1231 ft 115 kts 228°
2026-04-18 08:49 -37.04723 174.98508 1295 ft 115 kts 234°
2026-04-18 08:49 -37.05315 174.97790 1278 ft 119 kts 242°
2026-04-18 08:50 -37.05833 174.97035 1263 ft 100 kts 251°
2026-04-18 08:50 -37.05975 174.96645 1211 ft 88 kts 279°
2026-04-18 08:50 -37.05820 174.96092 1150 ft 67 kts 329°
2026-04-18 08:50 -37.05452 174.95764 1090 ft 59 kts 341°
2026-04-18 08:51 -37.05091 174.95557 962 ft 59 kts 346°
2026-04-18 08:51 -37.04695 174.95526 775 ft 58 kts 14°
2026-04-18 08:51 -37.04371 174.95821 603 ft 60 kts 49°
2026-04-18 08:51 -37.04131 174.96193 491 ft 53 kts 29°
2026-04-18 08:52 -37.03841 174.96493 374 ft 56 kts 37°
2026-04-18 08:52 -37.03563 174.96849 207 ft 57 kts 36°
2026-04-18 08:52 -37.03299 174.97180 113 ft 45 kts 46°
2026-04-18 08:52 -37.03092 174.97443 131 ft 51 kts 42°
2026-04-18 08:53 -37.02844 174.97810 301 ft 56 kts 46°
2026-04-18 08:53 -37.02618 174.98209 508 ft 56 kts 42°
2026-04-18 08:53 -37.02358 174.98595 664 ft 61 kts 38°
2026-04-18 08:53 -37.02374 174.99203 858 ft 89 kts 102°
2026-04-18 08:54 -37.02782 174.99805 1040 ft 102 kts 140°
2026-04-18 08:54 -37.03516 174.99625 1117 ft 113 kts 230°
2026-04-18 08:54 -37.04140 174.98965 1133 ft 122 kts 230°
2026-04-18 08:54 -37.04798 174.98312 1220 ft 120 kts 229°
2026-04-18 08:55 -37.05423 174.97639 1265 ft 114 kts 240°
2026-04-18 08:55 -37.05811 174.96866 1215 ft 94 kts 269°
2026-04-18 08:55 -37.05786 174.96201 1088 ft 66 kts 320°
2026-04-18 08:55 -37.05467 174.95859 1033 ft 59 kts 337°
2026-04-18 08:56 -37.05145 174.95601 972 ft 49 kts 340°
2026-04-18 08:56 -37.04828 174.95438 825 ft 51 kts
2026-04-18 08:56 -37.04520 174.95668 682 ft 52 kts 27°
2026-04-18 08:56 -37.04244 174.95966 558 ft 53 kts 34°
2026-04-18 08:57 -37.03716 174.96654 270 ft 55 kts 35°
2026-04-18 08:57 -37.03443 174.96991 144 ft 56 kts 43°
2026-04-18 08:57 -37.03220 174.97282 110 ft 35 kts 41°
2026-04-18 08:58 -37.03080 174.97456 110 ft 21 kts 44°
2026-04-18 08:58 -37.03008 174.97548 110 ft 10 kts 44°
2026-04-18 08:58 -37.02997 174.97598 110 ft 5 kts 123°
2026-04-18 08:58 -37.03028 174.97626 110 ft 5 kts 202°
2026-04-18 08:59 -37.03061 174.97582 110 ft 8 kts 226°
2026-04-18 08:59 -37.03108 174.97522 110 ft 9 kts 227°
2026-04-18 08:59 -37.03147 174.97472 110 ft 8 kts 222°
2026-04-18 08:59 -37.03197 174.97409 110 ft 11 kts 228°
2026-04-18 09:00 -37.03240 174.97354 110 ft 6 kts 226°
2026-04-18 09:00 -37.03274 174.97310 110 ft 6 kts 223°
2026-04-18 09:00 -37.03291 174.97298 110 ft 1 kts 121°
2026-04-18 09:00 -37.03310 174.97310 110 ft 5 kts 195°
2026-04-18 09:01 -37.03344 174.97279 110 ft 7 kts 218°
2026-04-18 09:01 -37.03395 174.97231 110 ft 7 kts 208°
2026-04-18 09:01 -37.03413 174.97267 110 ft 6 kts 57°
2026-04-18 09:01 -37.03390 174.97272 110 ft 0 kts 320°